Rocky Mountain Metropolitan Airport
KBJC : now visible

Airfield :











YOU CAN JOIN US ON...

 
LOGIN :

Register | Disclaimer

   EN    FR    IT 

 









Legend :    VFR   Marginal VFR   IFR   Intensive IFR   Very Intensive IFR
Visi :
Ceiling :
>= 8 km
>= 3000ft
5 to 8 km
1000 to 3000 ft
1500m to 5 km
500 to 1000 ft
800 to 1500m
200 to 500 ft
< 800m
< 200 ft
Symbols :   Thunderstorms  Fog  Heavy snow  Heavy precipitations  Wind > 20 kt







- Airport Elevation : 5673 ft


KBJC - Rocky Mountain Metropolitan

CURRENT METAR :
  • 220953Z AUTO 25005KT 10SM CLR 07/05 A3011 RMK AO2

EXPIRED METARs :
  • 220930Z AUTO 26007KT 10SM CLR 06/04 A3011 RMK AO2
  • 220912Z AUTO 26006KT 10SM CLR 07/05 A3011 RMK AO2
  • 220850Z AUTO 00000KT 10SM CLR 07/05 A3012 RMK AO2
  • 220832Z AUTO 00000KT 10SM CLR 07/06 A3012 RMK AO2
  • 220808Z AUTO 26004KT 10SM CLR 07/05 A3012 RMK AO2
  • 220748Z AUTO 27006KT 10SM CLR 07/06 A3012 RMK AO2
  • 220730Z AUTO 28004KT 10SM CLR 08/06 A3012 RMK AO2
  • 220712Z AUTO 28003KT 10SM CLR 08/07 A3011 RMK AO2

TAF KBJC
Valid from the 22 at 06:00 until the 23 at 06:00 UTC


220522Z 2206/2306 02006KT P6SM VCSH BKN050 OVC080
FM220700 25006KT P6SM SCT050 OVC080
FM220900 21006KT P6SM SCT080 SCT120
FM221600 VRB06KT P6SM SKC
FM221900 09006KT P6SM FEW100
FM230100 15006KT P6SM SKC
No reported NOTAMs for that airfield.



MET'MAP, your aeronautical weather chart ! - Copyright ORBIFLY December 2007 - Disclaimer

ORBIFLY MET'MAP TEAM :

Programming & Development : Alexandra Zaïnal
Concept & Development : Baudouin d'Aumeries
Co-Development & Prog : Marc-Olivier Méhu
Technical & hardware support : Manuel Goepfert

Contact : metmap@orbifly.com




SOURCES & CREDITS :

   NOAA       Earth
Advisory